sensor_id;sensor_type;location;lat;lon;timestamp;pressure;altitude;pressure_sealevel;temperature;humidity
70544;BME280;58097;48.364;-1.224;2022-08-11T00:01:53;99905.00;;;22.43;44.59
70544;BME280;58097;48.364;-1.224;2022-08-11T00:04:22;99900.84;;;22.46;44.58
70544;BME280;58097;48.364;-1.224;2022-08-11T00:06:49;99900.84;;;22.46;45.06
70544;BME280;58097;48.364;-1.224;2022-08-11T00:09:19;99902.41;;;22.42;44.42
70544;BME280;58097;48.364;-1.224;2022-08-11T00:11:51;99907.44;;;22.40;44.65
70544;BME280;58097;48.364;-1.224;2022-08-11T00:14:24;99897.88;;;22.41;44.79
70544;BME280;58097;48.364;-1.224;2022-08-11T00:16:59;99899.22;;;22.38;44.45
70544;BME280;58097;48.364;-1.224;2022-08-11T00:19:33;99901.41;;;22.36;44.85
70544;BME280;58097;48.364;-1.224;2022-08-11T00:22:00;99893.44;;;22.33;44.78
70544;BME280;58097;48.364;-1.224;2022-08-11T00:24:32;99902.38;;;22.30;44.88
70544;BME280;58097;48.364;-1.224;2022-08-11T00:26:59;99901.34;;;22.24;45.52
70544;BME280;58097;48.364;-1.224;2022-08-11T00:29:25;99903.16;;;22.19;45.38
70544;BME280;58097;48.364;-1.224;2022-08-11T00:31:54;99902.78;;;22.15;45.58
70544;BME280;58097;48.364;-1.224;2022-08-11T00:34:25;99906.53;;;22.09;47.39
70544;BME280;58097;48.364;-1.224;2022-08-11T00:36:56;99901.16;;;22.08;45.47
70544;BME280;58097;48.364;-1.224;2022-08-11T00:39:25;99902.00;;;22.08;45.76
70544;BME280;58097;48.364;-1.224;2022-08-11T00:42:10;99893.63;;;22.02;45.76
70544;BME280;58097;48.364;-1.224;2022-08-11T00:59:43;99894.78;;;21.94;46.05
70544;BME280;58097;48.364;-1.224;2022-08-11T01:37:36;99885.34;;;21.52;46.26
70544;BME280;58097;48.364;-1.224;2022-08-11T01:46:30;99884.09;;;21.48;46.82
70544;BME280;58097;48.364;-1.224;2022-08-11T01:52:28;99885.19;;;21.47;46.89
70544;BME280;58097;48.364;-1.224;2022-08-11T01:55:17;99891.06;;;21.45;46.88
70544;BME280;58097;48.364;-1.224;2022-08-11T02:01:01;99882.28;;;21.35;47.59
70544;BME280;58097;48.364;-1.224;2022-08-11T02:03:41;99883.59;;;21.32;47.49
70544;BME280;58097;48.364;-1.224;2022-08-11T02:06:18;99874.38;;;21.25;47.78
70544;BME280;58097;48.364;-1.224;2022-08-11T02:11:56;99887.63;;;21.18;47.91
70544;BME280;58097;48.364;-1.224;2022-08-11T02:14:31;99883.56;;;21.14;47.92
70544;BME280;58097;48.364;-1.224;2022-08-11T02:17:22;99881.41;;;21.10;47.67
70544;BME280;58097;48.364;-1.224;2022-08-11T02:20:08;99880.38;;;21.04;48.08
70544;BME280;58097;48.364;-1.224;2022-08-11T02:23:16;99886.31;;;20.96;47.96
70544;BME280;58097;48.364;-1.224;2022-08-11T02:29:09;99883.16;;;20.86;48.02
70544;BME280;58097;48.364;-1.224;2022-08-11T02:31:40;99878.19;;;20.81;48.77
70544;BME280;58097;48.364;-1.224;2022-08-11T02:34:48;99877.19;;;20.76;48.14
70544;BME280;58097;48.364;-1.224;2022-08-11T02:40:59;99874.81;;;20.72;48.20
70544;BME280;58097;48.364;-1.224;2022-08-11T02:43:40;99879.19;;;20.68;48.68
70544;BME280;58097;48.364;-1.224;2022-08-11T02:46:28;99880.72;;;20.64;48.93
70544;BME280;58097;48.364;-1.224;2022-08-11T02:49:17;99883.13;;;20.61;49.03
70544;BME280;58097;48.364;-1.224;2022-08-11T03:03:44;99886.72;;;20.43;49.31
70544;BME280;58097;48.364;-1.224;2022-08-11T03:06:26;99886.25;;;20.39;49.59
70544;BME280;58097;48.364;-1.224;2022-08-11T03:09:03;99879.16;;;20.37;49.75
70544;BME280;58097;48.364;-1.224;2022-08-11T03:11:44;99877.50;;;20.29;49.26
70544;BME280;58097;48.364;-1.224;2022-08-11T03:18:22;99885.28;;;20.27;49.67
70544;BME280;58097;48.364;-1.224;2022-08-11T03:29:36;99876.00;;;20.27;50.21
70544;BME280;58097;48.364;-1.224;2022-08-11T03:35:11;99880.31;;;20.23;50.31
70544;BME280;58097;48.364;-1.224;2022-08-11T03:37:59;99878.19;;;20.18;49.45
70544;BME280;58097;48.364;-1.224;2022-08-11T03:40:50;99885.78;;;20.11;49.87
70544;BME280;58097;48.364;-1.224;2022-08-11T03:43:55;99880.00;;;20.06;50.20
70544;BME280;58097;48.364;-1.224;2022-08-11T03:46:57;99887.13;;;20.02;50.46
70544;BME280;58097;48.364;-1.224;2022-08-11T03:52:52;99881.97;;;19.99;49.91
70544;BME280;58097;48.364;-1.224;2022-08-11T04:01:37;99881.97;;;19.92;50.51
70544;BME280;58097;48.364;-1.224;2022-08-11T04:07:40;99879.84;;;19.88;50.53
70544;BME280;58097;48.364;-1.224;2022-08-11T04:10:36;99877.09;;;19.81;50.81
70544;BME280;58097;48.364;-1.224;2022-08-11T04:16:23;99882.94;;;19.73;50.38
70544;BME280;58097;48.364;-1.224;2022-08-11T04:22:21;99882.75;;;19.68;50.80
70544;BME280;58097;48.364;-1.224;2022-08-11T04:30:32;99880.84;;;19.55;51.11
70544;BME280;58097;48.364;-1.224;2022-08-11T04:49:24;99872.88;;;19.39;52.06
70544;BME280;58097;48.364;-1.224;2022-08-11T04:59:21;99876.53;;;19.46;51.83
70544;BME280;58097;48.364;-1.224;2022-08-11T05:02:14;99866.59;;;19.50;51.94
70544;BME280;58097;48.364;-1.224;2022-08-11T05:13:45;99872.03;;;19.38;52.35
70544;BME280;58097;48.364;-1.224;2022-08-11T05:16:53;99869.22;;;19.38;51.75
70544;BME280;58097;48.364;-1.224;2022-08-11T05:19:45;99867.50;;;19.37;51.77
70544;BME280;58097;48.364;-1.224;2022-08-11T05:22:32;99872.03;;;19.38;52.09
70544;BME280;58097;48.364;-1.224;2022-08-11T05:25:24;99877.41;;;19.40;52.12
70544;BME280;58097;48.364;-1.224;2022-08-11T05:28:15;99873.13;;;19.37;51.99
70544;BME280;58097;48.364;-1.224;2022-08-11T05:31:11;99883.88;;;19.34;51.92
70544;BME280;58097;48.364;-1.224;2022-08-11T05:34:01;99874.59;;;19.33;52.38
70544;BME280;58097;48.364;-1.224;2022-08-11T05:36:50;99877.41;;;19.33;52.55
70544;BME280;58097;48.364;-1.224;2022-08-11T05:39:21;99878.72;;;19.37;52.49
70544;BME280;58097;48.364;-1.224;2022-08-11T05:42:08;99878.28;;;19.40;52.36
70544;BME280;58097;48.364;-1.224;2022-08-11T05:44:57;99876.56;;;19.39;52.49
70544;BME280;58097;48.364;-1.224;2022-08-11T05:47:49;99869.00;;;19.40;52.55
70544;BME280;58097;48.364;-1.224;2022-08-11T05:50:35;99876.75;;;19.44;52.54
70544;BME280;58097;48.364;-1.224;2022-08-11T05:53:22;99871.34;;;19.49;52.57
70544;BME280;58097;48.364;-1.224;2022-08-11T05:56:08;99878.25;;;19.54;52.77
70544;BME280;58097;48.364;-1.224;2022-08-11T05:58:54;99879.97;;;19.55;52.65
70544;BME280;58097;48.364;-1.224;2022-08-11T06:01:25;99878.03;;;19.55;52.82
70544;BME280;58097;48.364;-1.224;2022-08-11T06:03:53;99873.47;;;19.61;52.23
70544;BME280;58097;48.364;-1.224;2022-08-11T06:07:01;99870.88;;;19.66;52.51
70544;BME280;58097;48.364;-1.224;2022-08-11T06:09:33;99874.75;;;19.71;52.63
70544;BME280;58097;48.364;-1.224;2022-08-11T06:12:07;99878.59;;;19.77;53.27
70544;BME280;58097;48.364;-1.224;2022-08-11T06:14:42;99875.81;;;19.77;52.54
70544;BME280;58097;48.364;-1.224;2022-08-11T06:17:09;99885.28;;;19.83;53.01
70544;BME280;58097;48.364;-1.224;2022-08-11T06:19:38;99879.84;;;19.88;52.84
70544;BME280;58097;48.364;-1.224;2022-08-11T06:22:07;99884.16;;;19.97;52.58
70544;BME280;58097;48.364;-1.224;2022-08-11T06:24:35;99878.50;;;20.03;53.16
70544;BME280;58097;48.364;-1.224;2022-08-11T06:27:03;99881.03;;;20.11;52.69
70544;BME280;58097;48.364;-1.224;2022-08-11T06:29:33;99877.97;;;20.20;52.53
70544;BME280;58097;48.364;-1.224;2022-08-11T06:32:01;99874.22;;;20.32;53.03
70544;BME280;58097;48.364;-1.224;2022-08-11T06:34:31;99869.22;;;20.41;52.96
70544;BME280;58097;48.364;-1.224;2022-08-11T06:40:07;99877.63;;;20.72;53.91
70544;BME280;58097;48.364;-1.224;2022-08-11T06:42:45;99882.19;;;20.98;52.36
70544;BME280;58097;48.364;-1.224;2022-08-11T06:48:05;99886.91;;;21.84;52.88
70544;BME280;58097;48.364;-1.224;2022-08-11T06:50:36;99882.91;;;22.29;53.00
70544;BME280;58097;48.364;-1.224;2022-08-11T06:53:23;99887.34;;;22.78;52.63
70544;BME280;58097;48.364;-1.224;2022-08-11T06:55:49;99884.84;;;23.11;52.15
70544;BME280;58097;48.364;-1.224;2022-08-11T06:58:37;99894.69;;;23.44;51.60
70544;BME280;58097;48.364;-1.224;2022-08-11T07:04:39;99893.53;;;24.03;50.99
70544;BME280;58097;48.364;-1.224;2022-08-11T07:13:40;99898.78;;;24.97;49.29
70544;BME280;58097;48.364;-1.224;2022-08-11T07:16:28;99889.19;;;25.15;48.31
70544;BME280;58097;48.364;-1.224;2022-08-11T07:19:01;99895.28;;;25.40;48.79
70544;BME280;58097;48.364;-1.224;2022-08-11T07:21:48;99890.53;;;25.62;48.73
70544;BME280;58097;48.364;-1.224;2022-08-11T07:24:39;99900.00;;;25.90;47.33
70544;BME280;58097;48.364;-1.224;2022-08-11T07:27:31;99889.75;;;26.06;46.13
70544;BME280;58097;48.364;-1.224;2022-08-11T07:30:23;99890.41;;;26.13;46.27
70544;BME280;58097;48.364;-1.224;2022-08-11T07:32:51;99886.31;;;26.25;46.02
70544;BME280;58097;48.364;-1.224;2022-08-11T07:35:32;99890.75;;;26.38;45.48
70544;BME280;58097;48.364;-1.224;2022-08-11T07:38:03;99885.56;;;26.57;46.26
70544;BME280;58097;48.364;-1.224;2022-08-11T07:40:29;99894.84;;;26.74;45.98
70544;BME280;58097;48.364;-1.224;2022-08-11T07:42:56;99893.03;;;26.90;44.12
70544;BME280;58097;48.364;-1.224;2022-08-11T07:45:23;99889.50;;;27.05;45.29
70544;BME280;58097;48.364;-1.224;2022-08-11T07:48:11;99893.81;;;27.12;44.56
70544;BME280;58097;48.364;-1.224;2022-08-11T07:51:00;99893.38;;;27.26;44.78
70544;BME280;58097;48.364;-1.224;2022-08-11T07:53:46;99893.47;;;27.41;44.66
70544;BME280;58097;48.364;-1.224;2022-08-11T07:56:12;99891.69;;;27.67;41.79
70544;BME280;58097;48.364;-1.224;2022-08-11T07:58:40;99895.50;;;27.83;43.92
70544;BME280;58097;48.364;-1.224;2022-08-11T08:01:27;99895.88;;;28.01;43.26
70544;BME280;58097;48.364;-1.224;2022-08-11T08:04:17;99888.63;;;28.26;41.36
70544;BME280;58097;48.364;-1.224;2022-08-11T08:07:03;99883.84;;;28.36;38.52
70544;BME280;58097;48.364;-1.224;2022-08-11T08:09:50;99889.28;;;28.48;40.23
70544;BME280;58097;48.364;-1.224;2022-08-11T08:12:36;99889.00;;;28.60;38.73
70544;BME280;58097;48.364;-1.224;2022-08-11T08:15:22;99881.97;;;28.73;36.27
70544;BME280;58097;48.364;-1.224;2022-08-11T08:18:07;99884.56;;;28.89;38.07
70544;BME280;58097;48.364;-1.224;2022-08-11T08:20:54;99883.16;;;29.12;37.66
70544;BME280;58097;48.364;-1.224;2022-08-11T08:23:25;99875.19;;;29.09;35.54
70544;BME280;58097;48.364;-1.224;2022-08-11T08:25:58;99884.03;;;29.28;35.88
70544;BME280;58097;48.364;-1.224;2022-08-11T08:28:29;99879.19;;;29.34;35.77
70544;BME280;58097;48.364;-1.224;2022-08-11T08:30:56;99874.91;;;29.41;34.72
70544;BME280;58097;48.364;-1.224;2022-08-11T08:33:25;99877.19;;;29.44;35.10
70544;BME280;58097;48.364;-1.224;2022-08-11T08:35:53;99873.50;;;29.49;33.90
70544;BME280;58097;48.364;-1.224;2022-08-11T08:38:40;99869.50;;;29.60;31.26
70544;BME280;58097;48.364;-1.224;2022-08-11T08:41:06;99880.28;;;29.73;35.18
70544;BME280;58097;48.364;-1.224;2022-08-11T08:43:34;99876.81;;;29.91;33.96
70544;BME280;58097;48.364;-1.224;2022-08-11T08:46:01;99872.81;;;30.03;32.73
70544;BME280;58097;48.364;-1.224;2022-08-11T08:48:30;99873.69;;;29.93;30.72
70544;BME280;58097;48.364;-1.224;2022-08-11T08:51:00;99871.38;;;30.05;33.53
70544;BME280;58097;48.364;-1.224;2022-08-11T08:53:50;99865.63;;;30.20;32.81
70544;BME280;58097;48.364;-1.224;2022-08-11T08:56:17;99860.75;;;30.26;32.11
70544;BME280;58097;48.364;-1.224;2022-08-11T08:58:47;99854.78;;;30.23;31.05
70544;BME280;58097;48.364;-1.224;2022-08-11T09:01:15;99853.66;;;30.24;30.99
70544;BME280;58097;48.364;-1.224;2022-08-11T09:03:45;99857.28;;;30.39;31.46
70544;BME280;58097;48.364;-1.224;2022-08-11T09:06:12;99855.47;;;30.53;31.15
70544;BME280;58097;48.364;-1.224;2022-08-11T09:08:40;99848.88;;;30.68;30.86
70544;BME280;58097;48.364;-1.224;2022-08-11T09:11:07;99849.16;;;30.67;30.48
70544;BME280;58097;48.364;-1.224;2022-08-11T09:13:53;99852.75;;;30.82;30.49
70544;BME280;58097;48.364;-1.224;2022-08-11T09:16:21;99844.44;;;30.86;28.76
70544;BME280;58097;48.364;-1.224;2022-08-11T09:18:48;99846.38;;;30.96;28.86
70544;BME280;58097;48.364;-1.224;2022-08-11T09:21:16;99844.25;;;31.11;29.42
70544;BME280;58097;48.364;-1.224;2022-08-11T09:23:45;99843.69;;;31.09;28.36
70544;BME280;58097;48.364;-1.224;2022-08-11T09:26:31;99843.66;;;31.14;29.43
70544;BME280;58097;48.364;-1.224;2022-08-11T09:29:17;99837.78;;;31.35;29.80
70544;BME280;58097;48.364;-1.224;2022-08-11T09:31:43;99839.38;;;31.46;29.64
70544;BME280;58097;48.364;-1.224;2022-08-11T09:34:10;99832.75;;;31.51;28.53
70544;BME280;58097;48.364;-1.224;2022-08-11T09:36:40;99836.06;;;31.63;27.70
70544;BME280;58097;48.364;-1.224;2022-08-11T09:39:29;99826.66;;;31.62;27.46
70544;BME280;58097;48.364;-1.224;2022-08-11T09:42:15;99817.69;;;31.74;27.92
70544;BME280;58097;48.364;-1.224;2022-08-11T09:44:44;99820.13;;;31.86;27.49
70544;BME280;58097;48.364;-1.224;2022-08-11T09:47:19;99802.00;;;31.95;26.92
70544;BME280;58097;48.364;-1.224;2022-08-11T09:49:46;99809.03;;;32.03;26.52
70544;BME280;58097;48.364;-1.224;2022-08-11T09:52:14;99814.53;;;31.99;26.19
70544;BME280;58097;48.364;-1.224;2022-08-11T09:54:41;99821.56;;;32.07;26.59
70544;BME280;58097;48.364;-1.224;2022-08-11T09:57:07;99820.22;;;32.23;27.54
70544;BME280;58097;48.364;-1.224;2022-08-11T09:59:53;99811.81;;;32.32;25.99
70544;BME280;58097;48.364;-1.224;2022-08-11T10:02:26;99806.63;;;32.15;26.66
70544;BME280;58097;48.364;-1.224;2022-08-11T10:04:55;99807.69;;;32.19;26.17
70544;BME280;58097;48.364;-1.224;2022-08-11T10:07:44;99806.22;;;32.22;25.72
70544;BME280;58097;48.364;-1.224;2022-08-11T10:10:16;99806.50;;;32.25;24.88
70544;BME280;58097;48.364;-1.224;2022-08-11T10:13:09;99793.81;;;32.31;27.03
70544;BME280;58097;48.364;-1.224;2022-08-11T10:15:35;99806.72;;;32.29;24.14
70544;BME280;58097;48.364;-1.224;2022-08-11T10:18:08;99799.03;;;32.24;24.90
70544;BME280;58097;48.364;-1.224;2022-08-11T10:20:58;99798.16;;;32.29;23.72
70544;BME280;58097;48.364;-1.224;2022-08-11T10:23:27;99808.75;;;32.28;22.09
70544;BME280;58097;48.364;-1.224;2022-08-11T10:26:15;99792.31;;;32.15;23.51
70544;BME280;58097;48.364;-1.224;2022-08-11T10:29:04;99794.19;;;32.25;24.17
70544;BME280;58097;48.364;-1.224;2022-08-11T10:31:54;99782.69;;;32.30;22.63
70544;BME280;58097;48.364;-1.224;2022-08-11T10:34:40;99797.00;;;32.30;24.73
70544;BME280;58097;48.364;-1.224;2022-08-11T10:37:08;99788.19;;;32.45;22.34
70544;BME280;58097;48.364;-1.224;2022-08-11T10:39:36;99796.88;;;32.40;22.00
70544;BME280;58097;48.364;-1.224;2022-08-11T10:42:03;99793.91;;;32.45;22.93
70544;BME280;58097;48.364;-1.224;2022-08-11T10:44:51;99781.28;;;32.65;23.43
70544;BME280;58097;48.364;-1.224;2022-08-11T10:47:18;99772.72;;;32.84;24.19
70544;BME280;58097;48.364;-1.224;2022-08-11T10:50:08;99765.09;;;32.79;22.42
70544;BME280;58097;48.364;-1.224;2022-08-11T10:52:56;99758.34;;;32.70;22.59
70544;BME280;58097;48.364;-1.224;2022-08-11T10:55:43;99755.41;;;32.75;21.67
70544;BME280;58097;48.364;-1.224;2022-08-11T10:58:30;99757.22;;;33.04;23.31
70544;BME280;58097;48.364;-1.224;2022-08-11T11:01:37;99762.34;;;33.20;22.58
70544;BME280;58097;48.364;-1.224;2022-08-11T11:04:07;99764.53;;;33.42;23.02
70544;BME280;58097;48.364;-1.224;2022-08-11T11:07:03;99740.06;;;33.17;20.33
70544;BME280;58097;48.364;-1.224;2022-08-11T11:09:32;99744.97;;;33.31;22.23
70544;BME280;58097;48.364;-1.224;2022-08-11T11:12:10;99737.28;;;33.31;22.31
70544;BME280;58097;48.364;-1.224;2022-08-11T11:14:59;99747.69;;;33.22;20.98
70544;BME280;58097;48.364;-1.224;2022-08-11T11:17:51;99744.63;;;33.18;21.72
70544;BME280;58097;48.364;-1.224;2022-08-11T11:26:36;99741.72;;;33.37;21.38
70544;BME280;58097;48.364;-1.224;2022-08-11T11:32:23;99746.81;;;33.54;21.56
70544;BME280;58097;48.364;-1.224;2022-08-11T11:35:08;99739.41;;;33.67;23.09
70544;BME280;58097;48.364;-1.224;2022-08-11T11:37:36;99727.75;;;33.63;21.98
70544;BME280;58097;48.364;-1.224;2022-08-11T11:40:09;99732.50;;;33.54;21.10
70544;BME280;58097;48.364;-1.224;2022-08-11T11:42:37;99734.00;;;33.65;21.56
70544;BME280;58097;48.364;-1.224;2022-08-11T11:45:04;99722.22;;;33.67;20.05
70544;BME280;58097;48.364;-1.224;2022-08-11T11:47:32;99722.19;;;33.80;21.55
70544;BME280;58097;48.364;-1.224;2022-08-11T11:49:58;99725.50;;;34.01;21.63
70544;BME280;58097;48.364;-1.224;2022-08-11T11:52:25;99726.94;;;34.26;22.31
70544;BME280;58097;48.364;-1.224;2022-08-11T11:54:54;99727.72;;;34.04;19.55
70544;BME280;58097;48.364;-1.224;2022-08-11T11:57:21;99723.47;;;34.15;21.19
70544;BME280;58097;48.364;-1.224;2022-08-11T12:00:08;99740.22;;;34.36;20.08
70544;BME280;58097;48.364;-1.224;2022-08-11T12:03:00;99727.19;;;34.02;20.63
70544;BME280;58097;48.364;-1.224;2022-08-11T12:05:26;99731.22;;;34.15;21.38
70544;BME280;58097;48.364;-1.224;2022-08-11T12:07:54;99725.34;;;33.84;19.30
70544;BME280;58097;48.364;-1.224;2022-08-11T12:11:00;99724.47;;;33.56;19.14
70544;BME280;58097;48.364;-1.224;2022-08-11T12:13:49;99720.53;;;33.66;20.82
70544;BME280;58097;48.364;-1.224;2022-08-11T12:16:18;99715.88;;;33.83;20.09
70544;BME280;58097;48.364;-1.224;2022-08-11T12:18:46;99722.22;;;33.94;20.54
70544;BME280;58097;48.364;-1.224;2022-08-11T12:21:15;99717.44;;;34.03;20.23
70544;BME280;58097;48.364;-1.224;2022-08-11T12:23:43;99712.22;;;34.05;20.07
70544;BME280;58097;48.364;-1.224;2022-08-11T12:26:30;99703.16;;;34.26;21.38
70544;BME280;58097;48.364;-1.224;2022-08-11T12:29:17;99699.34;;;34.53;21.36
70544;BME280;58097;48.364;-1.224;2022-08-11T12:31:44;99705.03;;;34.66;20.44
70544;BME280;58097;48.364;-1.224;2022-08-11T12:34:12;99699.44;;;34.84;20.55
70544;BME280;58097;48.364;-1.224;2022-08-11T12:36:49;99703.66;;;34.28;19.28
70544;BME280;58097;48.364;-1.224;2022-08-11T12:39:20;99707.06;;;34.30;20.15
70544;BME280;58097;48.364;-1.224;2022-08-11T12:42:09;99695.31;;;34.17;19.88
70544;BME280;58097;48.364;-1.224;2022-08-11T12:44:57;99688.25;;;34.37;20.70
70544;BME280;58097;48.364;-1.224;2022-08-11T12:47:48;99698.31;;;34.48;19.92
70544;BME280;58097;48.364;-1.224;2022-08-11T12:50:34;99695.25;;;34.45;20.24
70544;BME280;58097;48.364;-1.224;2022-08-11T12:53:23;99682.94;;;34.44;20.36
70544;BME280;58097;48.364;-1.224;2022-08-11T12:55:52;99685.69;;;34.72;21.21
70544;BME280;58097;48.364;-1.224;2022-08-11T12:58:40;99699.94;;;34.63;20.24
70544;BME280;58097;48.364;-1.224;2022-08-11T13:01:07;99684.53;;;34.82;21.39
70544;BME280;58097;48.364;-1.224;2022-08-11T13:03:53;99685.41;;;34.60;19.31
70544;BME280;58097;48.364;-1.224;2022-08-11T13:06:40;99682.75;;;34.86;19.55
70544;BME280;58097;48.364;-1.224;2022-08-11T13:09:07;99678.22;;;34.93;19.89
70544;BME280;58097;48.364;-1.224;2022-08-11T13:11:35;99687.81;;;34.89;19.24
70544;BME280;58097;48.364;-1.224;2022-08-11T13:14:23;99669.06;;;34.69;19.13
70544;BME280;58097;48.364;-1.224;2022-08-11T13:16:50;99667.56;;;34.27;19.11
70544;BME280;58097;48.364;-1.224;2022-08-11T13:19:36;99672.22;;;34.36;20.12
70544;BME280;58097;48.364;-1.224;2022-08-11T13:22:02;99664.66;;;34.63;20.95
70544;BME280;58097;48.364;-1.224;2022-08-11T13:24:31;99661.59;;;34.82;20.32
70544;BME280;58097;48.364;-1.224;2022-08-11T13:26:58;99665.38;;;34.91;19.74
70544;BME280;58097;48.364;-1.224;2022-08-11T13:29:26;99660.09;;;35.15;20.74
70544;BME280;58097;48.364;-1.224;2022-08-11T13:31:55;99664.34;;;35.18;19.33
70544;BME280;58097;48.364;-1.224;2022-08-11T13:34:23;99664.53;;;35.21;20.15
70544;BME280;58097;48.364;-1.224;2022-08-11T13:36:54;99669.09;;;35.22;20.36
70544;BME280;58097;48.364;-1.224;2022-08-11T13:39:22;99655.19;;;35.38;20.50
70544;BME280;58097;48.364;-1.224;2022-08-11T13:41:49;99656.53;;;35.41;20.36
70544;BME280;58097;48.364;-1.224;2022-08-11T13:44:16;99671.19;;;35.30;19.70
70544;BME280;58097;48.364;-1.224;2022-08-11T13:46:43;99664.97;;;35.06;19.61
70544;BME280;58097;48.364;-1.224;2022-08-11T13:49:10;99656.06;;;35.16;19.84
70544;BME280;58097;48.364;-1.224;2022-08-11T13:51:36;99659.06;;;35.33;20.03
70544;BME280;58097;48.364;-1.224;2022-08-11T13:54:15;99662.84;;;35.20;18.72
70544;BME280;58097;48.364;-1.224;2022-08-11T13:56:46;99656.41;;;35.23;18.96
70544;BME280;58097;48.364;-1.224;2022-08-11T13:59:13;99658.97;;;34.94;19.19
70544;BME280;58097;48.364;-1.224;2022-08-11T14:01:47;99656.91;;;34.86;19.43
70544;BME280;58097;48.364;-1.224;2022-08-11T14:04:19;99660.56;;;35.00;19.29
70544;BME280;58097;48.364;-1.224;2022-08-11T14:06:51;99656.72;;;35.13;20.29
70544;BME280;58097;48.364;-1.224;2022-08-11T14:09:29;99657.19;;;35.37;19.71
70544;BME280;58097;48.364;-1.224;2022-08-11T14:11:59;99649.28;;;35.43;18.96
70544;BME280;58097;48.364;-1.224;2022-08-11T14:14:50;99642.03;;;35.54;19.82
70544;BME280;58097;48.364;-1.224;2022-08-11T14:17:18;99649.78;;;35.45;19.78
70544;BME280;58097;48.364;-1.224;2022-08-11T14:19:46;99656.22;;;35.51;20.09
70544;BME280;58097;48.364;-1.224;2022-08-11T14:22:15;99649.53;;;35.64;20.37
70544;BME280;58097;48.364;-1.224;2022-08-11T14:24:43;99646.47;;;35.69;20.00
70544;BME280;58097;48.364;-1.224;2022-08-11T14:27:14;99642.88;;;35.15;19.32
70544;BME280;58097;48.364;-1.224;2022-08-11T14:29:41;99642.88;;;35.15;19.98
70544;BME280;58097;48.364;-1.224;2022-08-11T14:32:10;99638.59;;;35.35;20.21
70544;BME280;58097;48.364;-1.224;2022-08-11T14:34:40;99645.91;;;35.50;19.68
70544;BME280;58097;48.364;-1.224;2022-08-11T14:37:12;99638.31;;;35.54;19.18
70544;BME280;58097;48.364;-1.224;2022-08-11T14:39:44;99625.09;;;35.35;19.75
70544;BME280;58097;48.364;-1.224;2022-08-11T14:42:13;99623.41;;;35.43;20.16
70544;BME280;58097;48.364;-1.224;2022-08-11T14:45:03;99630.84;;;35.35;19.09
70544;BME280;58097;48.364;-1.224;2022-08-11T14:47:52;99620.53;;;35.43;18.43
70544;BME280;58097;48.364;-1.224;2022-08-11T14:50:21;99621.88;;;35.37;19.77
70544;BME280;58097;48.364;-1.224;2022-08-11T14:53:03;99623.09;;;35.45;18.92
70544;BME280;58097;48.364;-1.224;2022-08-11T14:55:36;99626.97;;;35.49;18.70
70544;BME280;58097;48.364;-1.224;2022-08-11T14:58:22;99626.88;;;35.62;19.14
70544;BME280;58097;48.364;-1.224;2022-08-11T15:00:51;99622.13;;;35.58;19.50
70544;BME280;58097;48.364;-1.224;2022-08-11T15:03:19;99619.44;;;35.70;19.53
70544;BME280;58097;48.364;-1.224;2022-08-11T15:05:48;99623.34;;;35.83;19.06
70544;BME280;58097;48.364;-1.224;2022-08-11T15:08:16;99621.63;;;35.73;17.63
70544;BME280;58097;48.364;-1.224;2022-08-11T15:10:44;99621.13;;;35.71;18.32
70544;BME280;58097;48.364;-1.224;2022-08-11T15:13:11;99601.44;;;35.47;18.26
70544;BME280;58097;48.364;-1.224;2022-08-11T15:15:41;99614.47;;;35.45;18.73
70544;BME280;58097;48.364;-1.224;2022-08-11T15:18:19;99595.44;;;35.26;17.90
70544;BME280;58097;48.364;-1.224;2022-08-11T15:20:49;99605.44;;;35.29;18.41
70544;BME280;58097;48.364;-1.224;2022-08-11T15:23:29;99604.38;;;35.16;16.79
70544;BME280;58097;48.364;-1.224;2022-08-11T15:26:12;99606.91;;;35.18;17.72
70544;BME280;58097;48.364;-1.224;2022-08-11T15:28:46;99610.09;;;35.16;18.15
70544;BME280;58097;48.364;-1.224;2022-08-11T15:31:26;99600.31;;;35.17;18.02
70544;BME280;58097;48.364;-1.224;2022-08-11T15:34:06;99590.50;;;35.18;18.34
70544;BME280;58097;48.364;-1.224;2022-08-11T15:36:44;99595.22;;;35.14;18.12
70544;BME280;58097;48.364;-1.224;2022-08-11T15:39:26;99593.09;;;35.28;18.11
70544;BME280;58097;48.364;-1.224;2022-08-11T15:41:59;99589.06;;;35.29;18.80
70544;BME280;58097;48.364;-1.224;2022-08-11T15:44:40;99590.63;;;35.44;18.59
70544;BME280;58097;48.364;-1.224;2022-08-11T15:47:19;99606.00;;;35.39;16.25
70544;BME280;58097;48.364;-1.224;2022-08-11T15:49:50;99592.38;;;35.23;17.95
70544;BME280;58097;48.364;-1.224;2022-08-11T15:52:20;99593.91;;;35.20;17.81
70544;BME280;58097;48.364;-1.224;2022-08-11T15:54:48;99594.06;;;35.15;17.98
70544;BME280;58097;48.364;-1.224;2022-08-11T15:57:15;99583.75;;;35.23;17.75
70544;BME280;58097;48.364;-1.224;2022-08-11T15:59:52;99594.78;;;35.29;18.20
70544;BME280;58097;48.364;-1.224;2022-08-11T16:02:29;99594.91;;;35.24;18.33
70544;BME280;58097;48.364;-1.224;2022-08-11T16:05:09;99595.97;;;35.28;18.51
70544;BME280;58097;48.364;-1.224;2022-08-11T16:07:37;99591.91;;;35.29;17.72
70544;BME280;58097;48.364;-1.224;2022-08-11T16:10:08;99591.06;;;35.29;18.08
70544;BME280;58097;48.364;-1.224;2022-08-11T16:12:45;99590.22;;;35.28;17.37
70544;BME280;58097;48.364;-1.224;2022-08-11T16:15:23;99581.84;;;35.01;17.50
70544;BME280;58097;48.364;-1.224;2022-08-11T16:18:02;99591.41;;;34.88;17.25
70544;BME280;58097;48.364;-1.224;2022-08-11T16:20:29;99571.19;;;34.70;17.66
70544;BME280;58097;48.364;-1.224;2022-08-11T16:23:00;99568.97;;;34.67;18.27
70544;BME280;58097;48.364;-1.224;2022-08-11T16:25:27;99578.31;;;34.73;18.34
70544;BME280;58097;48.364;-1.224;2022-08-11T16:27:56;99576.31;;;34.82;18.27
70544;BME280;58097;48.364;-1.224;2022-08-11T16:30:40;99567.59;;;34.87;17.86
70544;BME280;58097;48.364;-1.224;2022-08-11T16:33:09;99566.00;;;34.50;17.48
70544;BME280;58097;48.364;-1.224;2022-08-11T16:35:36;99566.84;;;34.28;18.01
70544;BME280;58097;48.364;-1.224;2022-08-11T16:38:13;99560.97;;;34.33;18.13
70544;BME280;58097;48.364;-1.224;2022-08-11T16:40:52;99560.66;;;34.35;17.62
70544;BME280;58097;48.364;-1.224;2022-08-11T16:43:20;99572.25;;;34.30;18.18